createdAt,value
2017-10-01T00:00:54.574Z,15.91
2017-10-01T00:01:54.590Z,15.95
2017-10-01T00:02:54.614Z,15.98
2017-10-01T00:03:54.644Z,16.02
2017-10-01T00:04:54.654Z,15.77
2017-10-01T00:05:54.784Z,15.61
2017-10-01T00:06:54.702Z,15.36
2017-10-01T00:07:54.724Z,15.29
2017-10-01T00:08:54.744Z,15.33
2017-10-01T00:09:54.766Z,15.29
2017-10-01T00:10:54.786Z,15.4
2017-10-01T00:11:54.803Z,15.19
2017-10-01T00:12:54.827Z,15.21
2017-10-01T00:13:54.896Z,15.03
2017-10-01T00:14:55.183Z,15.04
2017-10-01T00:15:54.887Z,15.02
2017-10-01T00:16:54.909Z,15
2017-10-01T00:17:54.941Z,15.04
2017-10-01T00:18:54.957Z,15.03
2017-10-01T00:19:55.285Z,15.04
2017-10-01T00:20:54.998Z,15.04
2017-10-01T00:21:55.012Z,15.02
2017-10-01T00:22:55.033Z,15.04
2017-10-01T00:23:55.052Z,14.96
2017-10-01T00:24:55.080Z,15
2017-10-01T00:25:55.408Z,15.17
2017-10-01T00:26:55.121Z,15.02
2017-10-01T00:27:55.453Z,15.02
2017-10-01T00:28:55.519Z,15.07
2017-10-01T00:29:55.185Z,14.86
2017-10-01T00:30:55.205Z,14.89
2017-10-01T00:31:55.534Z,14.81
2017-10-01T00:32:55.245Z,14.7
2017-10-01T00:33:55.266Z,14.58
2017-10-01T00:34:55.294Z,14.7
2017-10-01T00:35:55.313Z,14.73
2017-10-01T00:36:55.333Z,14.68
2017-10-01T00:37:55.345Z,14.62
2017-10-01T00:38:55.370Z,14.6
2017-10-01T00:39:55.396Z,14.51
2017-10-01T00:40:55.406Z,14.59
2017-10-01T00:41:55.428Z,14.6
2017-10-01T00:42:55.449Z,14.59
2017-10-01T00:43:55.474Z,14.63
2017-10-01T00:44:55.544Z,14.78
2017-10-01T00:45:55.513Z,14.79
2017-10-01T00:46:55.535Z,14.84
2017-10-01T00:47:55.562Z,14.68
2017-10-01T00:48:55.602Z,14.84
2017-10-01T00:49:55.598Z,14.84
2017-10-01T00:50:55.613Z,14.96
2017-10-01T00:51:55.648Z,14.89
2017-10-01T00:52:55.655Z,14.96
2017-10-01T00:53:55.674Z,14.94
2017-10-01T00:54:55.697Z,14.88
2017-10-01T00:55:55.716Z,15.06
2017-10-01T00:56:55.733Z,14.99
2017-10-01T00:57:56.071Z,15.04
2017-10-01T00:58:55.785Z,15.04
2017-10-01T00:59:55.876Z,14.92
2017-10-01T01:00:55.829Z,15.03
2017-10-01T01:01:55.842Z,14.99
2017-10-01T01:02:55.861Z,15.03
2017-10-01T01:03:55.882Z,15.03
2017-10-01T01:04:55.900Z,14.84
2017-10-01T01:05:55.929Z,14.91
2017-10-01T01:06:55.945Z,14.94
2017-10-01T01:07:55.970Z,14.94
2017-10-01T01:08:56.013Z,15.02
2017-10-01T01:09:56.003Z,15.03
2017-10-01T01:10:56.026Z,15.03
2017-10-01T01:11:56.050Z,14.81
2017-10-01T01:12:56.070Z,14.86
2017-10-01T01:13:56.402Z,14.91
2017-10-01T01:14:56.112Z,15.09
2017-10-01T01:15:56.133Z,15.06
2017-10-01T01:16:56.197Z,15.11
2017-10-01T01:17:56.394Z,15.21
2017-10-01T01:18:56.196Z,14.94
2017-10-01T01:19:56.533Z,14.92
2017-10-01T01:20:56.230Z,14.89
2017-10-01T01:21:56.254Z,14.89
2017-10-01T01:22:56.273Z,14.85
2017-10-01T01:23:56.298Z,14.82
2017-10-01T01:24:56.315Z,14.89
2017-10-01T01:25:56.366Z,14.86
2017-10-01T01:26:56.356Z,14.94
2017-10-01T01:27:56.384Z,14.86
2017-10-01T01:28:56.397Z,14.84
2017-10-01T01:29:56.439Z,14.73
2017-10-01T01:30:56.438Z,14.81
2017-10-01T01:31:57.577Z,14.85
2017-10-01T01:32:56.500Z,14.89
2017-10-01T01:33:56.509Z,14.86
2017-10-01T01:34:56.528Z,14.92
2017-10-01T01:35:56.544Z,14.84
2017-10-01T01:36:56.565Z,14.92
2017-10-01T01:37:56.592Z,14.92
2017-10-01T01:38:56.603Z,14.94
2017-10-01T01:39:56.936Z,15.03
2017-10-01T01:40:56.650Z,14.99
2017-10-01T01:41:56.672Z,14.85
2017-10-01T01:42:56.691Z,14.72
2017-10-01T01:43:56.708Z,14.73
2017-10-01T01:44:56.740Z,14.72
2017-10-01T01:45:56.757Z,14.66
2017-10-01T01:46:56.774Z,14.65
2017-10-01T01:47:56.788Z,14.59
2017-10-01T01:48:56.867Z,14.54
2017-10-01T01:49:56.834Z,14.62
2017-10-01T01:50:56.855Z,14.51
2017-10-01T01:51:56.872Z,14.51
2017-10-01T01:52:56.895Z,14.33
2017-10-01T01:53:56.917Z,14.26
2017-10-01T01:54:56.936Z,14.33
2017-10-01T01:55:56.957Z,14.36
2017-10-01T01:56:56.977Z,14.43
2017-10-01T01:57:56.996Z,14.44
2017-10-01T01:58:57.326Z,14.47
2017-10-01T01:59:57.037Z,14.22
2017-10-01T02:00:57.061Z,14.15
2017-10-01T02:01:57.086Z,14.18
2017-10-01T02:02:57.098Z,14.28
2017-10-01T02:03:57.118Z,14.29
2017-10-01T02:04:57.190Z,14.22
2017-10-01T02:05:57.472Z,14.2
2017-10-01T02:06:57.180Z,14.29
2017-10-01T02:07:57.221Z,14.37
2017-10-01T02:08:57.223Z,14.36
2017-10-01T02:09:57.243Z,14.33
2017-10-01T02:10:57.261Z,14.36
2017-10-01T02:11:57.611Z,14.43
2017-10-01T02:12:57.303Z,14.54
2017-10-01T02:13:57.326Z,14.58
2017-10-01T02:14:57.397Z,14.5
2017-10-01T02:15:57.367Z,14.5
2017-10-01T02:16:57.383Z,14.33
2017-10-01T02:17:57.398Z,14.37
2017-10-01T02:18:57.428Z,14.22
2017-10-01T02:19:57.443Z,14.35
2017-10-01T02:20:57.464Z,14.3
2017-10-01T02:21:57.486Z,14.41
2017-10-01T02:22:57.507Z,14.44
2017-10-01T02:23:57.547Z,14.5
2017-10-01T02:24:57.551Z,14.35
2017-10-01T02:25:57.563Z,14.32
2017-10-01T02:26:57.585Z,14.36
2017-10-01T02:27:57.613Z,14.3
2017-10-01T02:28:57.628Z,14.08
2017-10-01T02:29:57.647Z,14.04
2017-10-01T02:30:57.671Z,14.1
2017-10-01T02:31:57.689Z,13.83
2017-10-01T02:32:57.707Z,13.79
2017-10-01T02:33:57.731Z,13.63
2017-10-01T02:34:58.078Z,13.68
2017-10-01T02:35:57.771Z,13.68
2017-10-01T02:36:57.788Z,13.7
2017-10-01T02:37:57.810Z,13.79
2017-10-01T02:38:57.829Z,13.65
2017-10-01T02:39:57.871Z,13.74
2017-10-01T02:40:57.871Z,13.72
2017-10-01T02:41:57.885Z,13.77
2017-10-01T02:42:57.911Z,13.7
2017-10-01T02:43:57.926Z,13.79
2017-10-01T02:44:57.946Z,13.59
2017-10-01T02:45:57.978Z,13.68
2017-10-01T02:46:58.302Z,13.77
2017-10-01T02:47:58.009Z,13.86
2017-10-01T02:48:58.084Z,13.92
2017-10-01T02:49:58.060Z,13.81
2017-10-01T02:50:58.076Z,13.83
2017-10-01T02:51:58.087Z,13.87
2017-10-01T02:52:58.123Z,13.87
2017-10-01T02:53:58.134Z,13.89
2017-10-01T02:54:58.157Z,13.67
2017-10-01T02:55:58.165Z,13.59
2017-10-01T02:56:58.194Z,13.57
2017-10-01T02:57:58.207Z,13.57
2017-10-01T02:58:58.241Z,13.7
2017-10-01T02:59:58.251Z,13.67
2017-10-01T03:00:58.291Z,13.77
2017-10-01T03:01:58.289Z,13.85
2017-10-01T03:02:58.309Z,13.78
2017-10-01T03:03:58.328Z,13.65
2017-10-01T03:04:58.349Z,13.67
2017-10-01T03:05:58.421Z,13.7
2017-10-01T03:06:58.396Z,13.65
2017-10-01T03:07:58.411Z,13.68
2017-10-01T03:08:58.424Z,13.71
2017-10-01T03:09:58.451Z,13.68
2017-10-01T03:10:58.470Z,13.74
2017-10-01T03:11:58.488Z,13.57
2017-10-01T03:12:58.511Z,13.44
2017-10-01T03:13:58.526Z,13.56
2017-10-01T03:14:58.865Z,13.72
2017-10-01T03:15:58.579Z,13.68
2017-10-01T03:16:58.591Z,13.56
2017-10-01T03:17:58.617Z,13.68
2017-10-01T03:18:58.625Z,13.71
2017-10-01T03:19:58.651Z,13.59
2017-10-01T03:20:58.673Z,13.53
2017-10-01T03:21:58.688Z,13.44
2017-10-01T03:22:58.710Z,13.38
2017-10-01T03:23:58.740Z,13.41
2017-10-01T03:24:58.753Z,13.57
2017-10-01T03:25:58.775Z,13.59
2017-10-01T03:26:58.789Z,13.62
2017-10-01T03:27:58.808Z,13.65
2017-10-01T03:28:58.827Z,13.65
2017-10-01T03:29:59.155Z,13.56
2017-10-01T03:30:58.880Z,13.57
2017-10-01T03:31:58.897Z,13.59
2017-10-01T03:32:58.911Z,13.68
2017-10-01T03:33:58.923Z,13.65
2017-10-01T03:34:58.946Z,13.71
2017-10-01T03:35:58.967Z,13.72
2017-10-01T03:36:58.998Z,13.71
2017-10-01T03:37:59.059Z,13.63
2017-10-01T03:38:59.022Z,13.56
2017-10-01T03:39:59.048Z,13.68
2017-10-01T03:40:59.378Z,13.7
2017-10-01T03:41:59.390Z,13.85
2017-10-01T03:42:59.419Z,13.72
2017-10-01T03:43:59.125Z,13.74
2017-10-01T03:44:59.151Z,13.81
2017-10-01T03:45:59.182Z,13.83
2017-10-01T03:46:59.198Z,13.62
2017-10-01T03:47:59.226Z,13.72
2017-10-01T03:48:59.231Z,13.81
2017-10-01T03:49:59.246Z,13.77
2017-10-01T03:50:59.581Z,13.81
2017-10-01T03:51:59.292Z,13.83
2017-10-01T03:52:59.311Z,13.62
2017-10-01T03:53:59.326Z,13.67
2017-10-01T03:54:59.399Z,13.6
2017-10-01T03:55:59.366Z,13.41
2017-10-01T03:56:59.388Z,13.49
2017-10-01T03:57:59.408Z,13.65
2017-10-01T03:58:59.425Z,13.52
2017-10-01T03:59:59.444Z,13.57
2017-10-01T04:00:59.466Z,13.59
2017-10-01T04:01:59.491Z,13.59
2017-10-01T04:02:59.511Z,13.68
2017-10-01T04:03:59.520Z,13.65
2017-10-01T04:04:59.541Z,13.68
2017-10-01T04:05:59.567Z,13.47
2017-10-01T04:06:59.891Z,13.65
2017-10-01T04:07:59.600Z,13.65
2017-10-01T04:08:59.622Z,13.68
2017-10-01T04:09:59.689Z,13.62
2017-10-01T04:10:59.659Z,13.67
2017-10-01T04:11:59.679Z,13.72
2017-10-01T04:12:59.700Z,13.63
2017-10-01T04:13:59.719Z,13.79
2017-10-01T04:14:59.741Z,13.81
2017-10-01T04:15:59.761Z,13.86
2017-10-01T04:16:59.777Z,13.93
2017-10-01T04:17:59.808Z,13.79
2017-10-01T04:18:59.821Z,13.72
2017-10-01T04:19:59.839Z,13.68
2017-10-01T04:20:59.861Z,13.77
2017-10-01T04:21:59.876Z,13.86
2017-10-01T04:22:59.896Z,13.81
2017-10-01T04:24:00.242Z,13.86
2017-10-01T04:24:59.933Z,13.78
2017-10-01T04:25:59.957Z,13.85
2017-10-01T04:27:00.085Z,13.79
2017-10-01T04:27:59.999Z,13.95
2017-10-01T04:29:00.014Z,13.99
2017-10-01T04:30:00.040Z,13.99
2017-10-01T04:31:00.061Z,13.99
2017-10-01T04:32:00.080Z,13.86
2017-10-01T04:33:00.098Z,13.93
2017-10-01T04:34:00.118Z,13.85
2017-10-01T04:35:00.145Z,13.9
2017-10-01T04:36:00.154Z,13.83
2017-10-01T04:37:00.175Z,13.87
2017-10-01T04:38:00.195Z,13.92
2017-10-01T04:39:00.217Z,13.81
2017-10-01T04:40:00.258Z,13.77
2017-10-01T04:41:00.564Z,13.83
2017-10-01T04:42:00.274Z,13.85
2017-10-01T04:43:00.293Z,13.81
2017-10-01T04:44:00.673Z,13.77
2017-10-01T04:45:00.337Z,13.81
2017-10-01T04:46:00.354Z,14.04
2017-10-01T04:47:00.371Z,13.85
2017-10-01T04:48:00.395Z,13.83
2017-10-01T04:49:00.419Z,13.81
2017-10-01T04:50:00.435Z,13.67
2017-10-01T04:51:00.455Z,13.54
2017-10-01T04:52:00.808Z,13.63
2017-10-01T04:53:00.504Z,13.89
2017-10-01T04:54:00.516Z,13.85
2017-10-01T04:55:00.549Z,13.79
2017-10-01T04:56:00.583Z,13.72
2017-10-01T04:57:00.581Z,13.83
2017-10-01T04:58:00.620Z,13.87
2017-10-01T04:59:00.615Z,13.81
2017-10-01T05:00:00.633Z,13.6
2017-10-01T05:01:00.654Z,13.56
2017-10-01T05:02:00.687Z,13.54
2017-10-01T05:03:00.693Z,13.65
2017-10-01T05:04:00.710Z,13.44
2017-10-01T05:05:00.733Z,13.59
2017-10-01T05:06:00.755Z,13.5
2017-10-01T05:07:01.133Z,13.59
2017-10-01T05:08:00.799Z,13.41
2017-10-01T05:09:00.818Z,13.46
2017-10-01T05:10:01.149Z,13.49
2017-10-01T05:11:00.866Z,13.49
2017-10-01T05:12:00.876Z,13.47
2017-10-01T05:13:00.893Z,13.44
2017-10-01T05:14:00.913Z,13.53
2017-10-01T05:15:00.938Z,13.35
2017-10-01T05:16:00.949Z,13.38
2017-10-01T05:17:00.968Z,13.11
2017-10-01T05:18:00.990Z,13.03
2017-10-01T05:19:01.011Z,13.13
2017-10-01T05:20:01.029Z,13.08
2017-10-01T05:21:01.049Z,13.12
2017-10-01T05:22:01.074Z,13.13
2017-10-01T05:23:01.087Z,13.18
2017-10-01T05:24:01.111Z,13.03
2017-10-01T05:25:01.126Z,13
2017-10-01T05:26:01.218Z,12.95
2017-10-01T05:27:01.164Z,13
2017-10-01T05:28:01.183Z,12.94
2017-10-01T05:29:01.202Z,12.93
2017-10-01T05:30:01.223Z,12.97
2017-10-01T05:31:01.246Z,12.94
2017-10-01T05:32:01.594Z,12.97
2017-10-01T05:33:01.297Z,12.93
2017-10-01T05:34:01.306Z,13
2017-10-01T05:35:01.319Z,12.93
2017-10-01T05:36:01.341Z,13.13
2017-10-01T05:37:01.361Z,13.18
2017-10-01T05:38:01.387Z,13.05
2017-10-01T05:39:01.399Z,13.09
2017-10-01T05:40:01.422Z,13.18
2017-10-01T05:41:01.449Z,13.25
2017-10-01T05:42:01.458Z,13.33
2017-10-01T05:43:01.476Z,13.41
2017-10-01T05:44:01.500Z,13.33
2017-10-01T05:45:01.517Z,13.3
2017-10-01T05:46:01.535Z,13.33
2017-10-01T05:47:01.574Z,13.53
2017-10-01T05:48:01.573Z,13.49
2017-10-01T05:49:01.594Z,13.54
2017-10-01T05:50:01.613Z,13.46
2017-10-01T05:51:01.635Z,13.38
2017-10-01T05:52:01.658Z,13.38
2017-10-01T05:53:01.675Z,13.31
2017-10-01T05:54:01.696Z,13.33
2017-10-01T05:55:01.715Z,13.28
2017-10-01T05:56:01.735Z,13.33
2017-10-01T05:57:01.757Z,13.42
2017-10-01T05:58:01.780Z,13.39
2017-10-01T05:59:01.802Z,13.25
2017-10-01T06:00:01.811Z,13.3
2017-10-01T06:01:01.833Z,13.33
2017-10-01T06:02:01.853Z,13.33
2017-10-01T06:03:01.867Z,13.3
2017-10-01T06:04:01.893Z,13.3
2017-10-01T06:05:01.912Z,13.41
2017-10-01T06:06:01.934Z,13.44
2017-10-01T06:07:01.954Z,13.3
2017-10-01T06:08:01.969Z,13.28
2017-10-01T06:09:01.999Z,13.42
2017-10-01T06:10:02.010Z,13.6
2017-10-01T06:11:02.031Z,13.46
2017-10-01T06:12:02.051Z,13.6
2017-10-01T06:13:02.066Z,13.72
2017-10-01T06:14:02.088Z,13.67
2017-10-01T06:15:02.127Z,13.68
2017-10-01T06:16:02.133Z,13.78
2017-10-01T06:17:02.468Z,13.67
2017-10-01T06:18:02.179Z,13.71
2017-10-01T06:19:02.190Z,13.57
2017-10-01T06:20:02.205Z,13.56
2017-10-01T06:21:02.233Z,13.39
2017-10-01T06:22:02.252Z,13.39
2017-10-01T06:23:02.274Z,13.31
2017-10-01T06:24:02.283Z,13.41
2017-10-01T06:25:02.304Z,13.5
2017-10-01T06:26:02.327Z,13.54
2017-10-01T06:27:02.350Z,13.6
2017-10-01T06:28:02.373Z,13.71
2017-10-01T06:29:02.384Z,13.67
2017-10-01T06:30:02.412Z,13.7
2017-10-01T06:31:02.433Z,13.68
2017-10-01T06:32:02.448Z,13.63
2017-10-01T06:33:02.778Z,13.37
2017-10-01T06:34:02.807Z,13.31
2017-10-01T06:35:02.502Z,13.47
2017-10-01T06:36:02.521Z,13.42
2017-10-01T06:37:02.543Z,13.56
2017-10-01T06:38:02.565Z,13.67
2017-10-01T06:39:02.585Z,13.78
2017-10-01T06:40:02.601Z,13.85
2017-10-01T06:41:02.620Z,13.93
2017-10-01T06:42:02.640Z,13.75
2017-10-01T06:43:02.661Z,13.77
2017-10-01T06:44:02.692Z,13.67
2017-10-01T06:45:02.701Z,13.5
2017-10-01T06:46:02.722Z,13.5
2017-10-01T06:47:02.739Z,13.46
2017-10-01T06:48:02.761Z,13.59
2017-10-01T06:49:02.833Z,13.6
2017-10-01T06:50:02.805Z,13.56
2017-10-01T06:51:02.822Z,13.52
2017-10-01T06:52:02.842Z,13.56
2017-10-01T06:53:02.863Z,13.59
2017-10-01T06:54:02.881Z,13.77
2017-10-01T06:55:02.900Z,13.86
2017-10-01T06:56:03.233Z,13.78
2017-10-01T06:57:02.939Z,13.75
2017-10-01T06:58:02.961Z,13.68
2017-10-01T06:59:02.977Z,13.56
2017-10-01T07:00:03.310Z,13.42
2017-10-01T07:01:03.026Z,13.3
2017-10-01T07:02:03.037Z,13.33
2017-10-01T07:03:03.057Z,13.3
2017-10-01T07:04:03.078Z,13.33
2017-10-01T07:05:03.096Z,13.41
2017-10-01T07:06:03.166Z,13.31
2017-10-01T07:07:03.133Z,13.44
2017-10-01T07:08:03.153Z,13.46
2017-10-01T07:09:03.173Z,13.47
2017-10-01T07:10:03.214Z,13.33
2017-10-01T07:11:03.218Z,13.31
2017-10-01T07:12:03.544Z,13.13
2017-10-01T07:13:03.254Z,13.12
2017-10-01T07:14:03.278Z,13.2
2017-10-01T07:15:03.291Z,13.2
2017-10-01T07:16:03.312Z,13.22
2017-10-01T07:17:03.333Z,13.16
2017-10-01T07:18:03.353Z,13.09
2017-10-01T07:19:03.376Z,13.05
2017-10-01T07:20:03.708Z,12.97
2017-10-01T07:21:03.722Z,13.03
2017-10-01T07:22:03.439Z,13.05
2017-10-01T07:23:03.449Z,13.16
2017-10-01T07:24:03.467Z,13.19
2017-10-01T07:25:03.500Z,13.03
2017-10-01T07:26:03.511Z,13.15
2017-10-01T07:27:03.530Z,13.13
2017-10-01T07:28:03.551Z,13.16
2017-10-01T07:29:03.565Z,13.16
2017-10-01T07:30:03.897Z,13.16
2017-10-01T07:31:03.606Z,13.12
2017-10-01T07:32:03.625Z,13.12
2017-10-01T07:33:03.650Z,13.15
2017-10-01T07:34:03.671Z,13.16
2017-10-01T07:35:03.681Z,13.23
2017-10-01T07:36:03.702Z,13.33
2017-10-01T07:37:03.721Z,13.42
2017-10-01T07:38:03.743Z,13.41
2017-10-01T07:39:03.765Z,13.39
2017-10-01T07:40:03.783Z,13.54
2017-10-01T07:41:03.818Z,13.57
2017-10-01T07:42:03.823Z,13.6
2017-10-01T07:43:03.839Z,13.5
2017-10-01T07:44:03.859Z,13.33
2017-10-01T07:45:04.196Z,13.37
2017-10-01T07:46:03.902Z,13.41
2017-10-01T07:47:03.941Z,13.42
2017-10-01T07:48:03.948Z,13.49
2017-10-01T07:49:03.966Z,13.56
2017-10-01T07:50:03.971Z,13.57
2017-10-01T07:51:04.014Z,13.59
2017-10-01T07:52:04.334Z,13.56
2017-10-01T07:53:04.354Z,13.49
2017-10-01T07:54:04.059Z,13.56
2017-10-01T07:55:04.203Z,13.68
2017-10-01T07:56:04.429Z,13.72
2017-10-01T07:57:04.446Z,13.71
2017-10-01T07:58:04.137Z,13.7
2017-10-01T07:59:04.149Z,13.67
2017-10-01T08:00:04.173Z,13.56
2017-10-01T08:01:04.194Z,13.5
2017-10-01T08:02:04.217Z,13.46
2017-10-01T08:03:04.231Z,13.62
2017-10-01T08:04:04.256Z,13.67
2017-10-01T08:05:04.271Z,13.62
2017-10-01T08:06:04.287Z,13.67
2017-10-01T08:07:04.387Z,13.6
2017-10-01T08:08:04.333Z,13.65
2017-10-01T08:09:04.345Z,13.71
2017-10-01T08:10:04.428Z,13.86
2017-10-01T08:11:04.390Z,13.75
2017-10-01T08:12:04.433Z,13.62
2017-10-01T08:13:04.427Z,13.62
2017-10-01T08:14:04.766Z,13.71
2017-10-01T08:15:04.469Z,13.62
2017-10-01T08:16:04.488Z,13.79
2017-10-01T08:17:04.510Z,13.71
2017-10-01T08:18:04.526Z,13.7
2017-10-01T08:19:04.590Z,13.6
2017-10-01T08:20:04.571Z,13.6
2017-10-01T08:21:04.589Z,13.65
2017-10-01T08:22:04.603Z,13.83
2017-10-01T08:23:04.709Z,13.92
2017-10-01T08:24:04.643Z,14.03
2017-10-01T08:25:04.674Z,13.9
2017-10-01T08:26:04.681Z,13.79
2017-10-01T08:27:04.711Z,14.03
2017-10-01T08:28:04.728Z,14.03
2017-10-01T08:29:05.006Z,14.15
2017-10-01T08:30:04.774Z,14.12
2017-10-01T08:31:04.787Z,14.22
2017-10-01T08:32:04.805Z,14.22
2017-10-01T08:33:05.132Z,14.17
2017-10-01T08:34:04.937Z,14.11
2017-10-01T08:35:05.175Z,14.03
2017-10-01T08:36:04.886Z,14.08
2017-10-01T08:37:04.903Z,14.1
2017-10-01T08:38:04.931Z,14.14
2017-10-01T08:39:04.946Z,14.03
2017-10-01T08:40:05.381Z,14.18
2017-10-01T08:41:04.988Z,14.22
2017-10-01T08:42:05.004Z,14.12
2017-10-01T08:43:05.026Z,14
2017-10-01T08:44:05.271Z,14
2017-10-01T08:45:05.065Z,13.96
2017-10-01T08:46:05.394Z,14.08
2017-10-01T08:47:05.105Z,14.07
2017-10-01T08:48:05.132Z,14.07
2017-10-01T08:49:05.143Z,14.18
2017-10-01T08:50:05.169Z,14.29
2017-10-01T08:51:05.181Z,14.32
2017-10-01T08:52:05.209Z,14.44
2017-10-01T08:53:05.229Z,14.62
2017-10-01T08:54:05.247Z,14.68
2017-10-01T08:55:05.374Z,14.79
2017-10-01T08:56:05.299Z,14.84
2017-10-01T08:57:05.304Z,14.96
2017-10-01T08:58:05.328Z,14.96
2017-10-01T08:59:05.403Z,14.89
2017-10-01T09:00:05.764Z,15.02
2017-10-01T09:01:05.393Z,15.07
2017-10-01T09:02:05.729Z,15.11
2017-10-01T09:03:05.436Z,15.15
2017-10-01T09:04:05.461Z,14.86
2017-10-01T09:05:05.507Z,14.84
2017-10-01T09:06:05.515Z,14.88
2017-10-01T09:07:05.517Z,14.86
2017-10-01T09:08:05.541Z,14.89
2017-10-01T09:09:05.558Z,14.96
2017-10-01T09:10:05.577Z,14.85
2017-10-01T09:11:05.610Z,14.99
2017-10-01T09:12:05.618Z,15.03
2017-10-01T09:13:05.649Z,15.25
2017-10-01T09:14:05.659Z,15.17
2017-10-01T09:15:05.792Z,15.19
2017-10-01T09:16:05.699Z,15.33
2017-10-01T09:17:06.046Z,15.49
2017-10-01T09:18:05.751Z,15.58
2017-10-01T09:19:05.760Z,15.54
2017-10-01T09:20:05.809Z,15.68
2017-10-01T09:21:05.806Z,15.73
2017-10-01T09:22:05.829Z,15.77
2017-10-01T09:23:06.165Z,15.82
2017-10-01T09:24:05.878Z,15.73
2017-10-01T09:25:06.209Z,15.72
2017-10-01T09:26:05.929Z,15.61
2017-10-01T09:27:05.938Z,15.49
2017-10-01T09:28:06.271Z,15.55
2017-10-01T09:29:05.975Z,15.37
2017-10-01T09:30:06.063Z,15.28
2017-10-01T09:31:06.014Z,15.37
2017-10-01T09:32:06.420Z,15.35
2017-10-01T09:33:06.060Z,15.33
2017-10-01T09:34:06.081Z,15.36
2017-10-01T09:35:06.109Z,15.51
2017-10-01T09:36:06.126Z,15.49
2017-10-01T09:37:06.151Z,15.61
2017-10-01T09:38:06.172Z,15.57
2017-10-01T09:39:06.191Z,15.82
2017-10-01T09:40:06.210Z,15.92
2017-10-01T09:41:06.239Z,16.16
2017-10-01T09:42:06.258Z,16.33
2017-10-01T09:43:06.709Z,16.49
2017-10-01T09:44:06.604Z,16.31
2017-10-01T09:45:06.654Z,16.38
2017-10-01T09:46:06.665Z,16.17
2017-10-01T09:47:06.363Z,16.26
2017-10-01T09:48:06.386Z,16.38
2017-10-01T09:49:06.469Z,16.53
2017-10-01T09:50:06.434Z,16.54
2017-10-01T09:51:06.455Z,16.61
2017-10-01T09:52:06.476Z,16.51
2017-10-01T09:53:06.504Z,16.6
2017-10-01T09:54:06.622Z,16.68
2017-10-01T09:55:06.868Z,16.76
2017-10-01T09:56:06.563Z,16.83
2017-10-01T09:57:06.584Z,17.09
2017-10-01T09:58:06.610Z,17.08
2017-10-01T09:59:06.634Z,17.02
2017-10-01T10:00:06.648Z,17.15
2017-10-01T10:01:06.668Z,17.22
2017-10-01T10:02:06.690Z,17.04
2017-10-01T10:03:07.037Z,17.19
2017-10-01T10:04:06.851Z,16.99
2017-10-01T10:05:06.994Z,17.04
2017-10-01T10:06:06.797Z,17.14
2017-10-01T10:07:06.857Z,17.14
2017-10-01T10:08:06.825Z,17.23
2017-10-01T10:09:06.911Z,17.16
2017-10-01T10:10:07.081Z,17.22
2017-10-01T10:11:06.903Z,17.23
2017-10-01T10:12:06.928Z,16.91
2017-10-01T10:13:06.941Z,16.84
2017-10-01T10:14:06.963Z,16.97
2017-10-01T10:15:07.172Z,17.11
2017-10-01T10:16:07.004Z,17.09
2017-10-01T10:17:07.028Z,16.86
2017-10-01T10:18:07.054Z,16.79
2017-10-01T10:19:07.079Z,16.58
2017-10-01T10:20:07.325Z,16.61
2017-10-01T10:21:07.119Z,16.68
2017-10-01T10:22:07.137Z,16.71
2017-10-01T10:23:07.161Z,16.69
2017-10-01T10:24:07.186Z,16.79
2017-10-01T10:25:07.705Z,16.74
2017-10-01T10:26:07.598Z,16.56
2017-10-01T10:27:07.257Z,16.51
2017-10-01T10:28:07.589Z,16.68
2017-10-01T10:29:07.299Z,16.89
2017-10-01T10:30:07.323Z,17.11
2017-10-01T10:31:07.548Z,17.42
2017-10-01T10:32:07.363Z,17.52
2017-10-01T10:33:07.389Z,17.71
2017-10-01T10:34:07.415Z,17.74
2017-10-01T10:35:07.575Z,17.94
2017-10-01T10:36:07.468Z,17.82
2017-10-01T10:37:07.484Z,17.86
2017-10-01T10:38:07.502Z,17.98
2017-10-01T10:39:07.521Z,18.18
2017-10-01T10:40:07.573Z,18.07
2017-10-01T10:41:07.571Z,18.19
2017-10-01T10:42:07.793Z,18.26
2017-10-01T10:43:07.618Z,18.43
2017-10-01T10:44:07.693Z,18.4
2017-10-01T10:45:07.661Z,18.41
2017-10-01T10:46:07.685Z,18.53
2017-10-01T10:47:07.716Z,18.65
2017-10-01T10:48:07.742Z,18.73
2017-10-01T10:49:07.753Z,18.65
2017-10-01T10:50:07.781Z,18.66
2017-10-01T10:51:08.114Z,18.66
2017-10-01T10:52:07.995Z,18.7
2017-10-01T10:53:07.847Z,18.71
2017-10-01T10:54:07.874Z,18.89
2017-10-01T10:55:08.250Z,19.07
2017-10-01T10:56:07.925Z,19.24
2017-10-01T10:57:08.317Z,19.37
2017-10-01T10:58:07.978Z,19.52
2017-10-01T10:59:07.998Z,19.52
2017-10-01T11:00:08.110Z,19.49
2017-10-01T11:01:08.044Z,19.63
2017-10-01T11:02:08.074Z,19.81
2017-10-01T11:03:08.104Z,19.91
2017-10-01T11:04:08.114Z,19.89
2017-10-01T11:05:08.149Z,20.06
2017-10-01T11:06:08.164Z,20.13
2017-10-01T11:07:08.207Z,20.32
2017-10-01T11:08:08.231Z,20.74
2017-10-01T11:09:08.247Z,21.03
2017-10-01T11:10:08.365Z,21.61
2017-10-01T11:11:08.693Z,21.98
2017-10-01T11:12:08.634Z,22.22
2017-10-01T11:13:08.344Z,22.47
2017-10-01T11:14:08.681Z,22.6
2017-10-01T11:15:08.465Z,22.76
2017-10-01T11:16:08.446Z,22.87
2017-10-01T11:17:08.454Z,22.81
2017-10-01T11:18:08.592Z,23.23
2017-10-01T11:19:08.509Z,23.31
2017-10-01T11:20:08.532Z,23.23
2017-10-01T11:21:08.564Z,23.12
2017-10-01T11:22:08.588Z,23.13
2017-10-01T11:23:08.630Z,23.23
2017-10-01T11:24:08.794Z,23.25
2017-10-01T11:25:08.696Z,23.27
2017-10-01T11:26:09.004Z,23.15
2017-10-01T11:27:08.725Z,23.23
2017-10-01T11:28:08.843Z,23.05
2017-10-01T11:29:09.109Z,22.78
2017-10-01T11:30:08.841Z,22.75
2017-10-01T11:31:08.884Z,22.54
2017-10-01T11:32:08.861Z,22.44
2017-10-01T11:33:08.890Z,22.22
2017-10-01T11:34:09.242Z,22.15
2017-10-01T11:35:09.014Z,22.17
2017-10-01T11:36:08.961Z,22.22
2017-10-01T11:37:08.994Z,22.13
2017-10-01T11:38:09.027Z,22.13
2017-10-01T11:39:09.170Z,21.99
2017-10-01T11:40:09.388Z,21.82
2017-10-01T11:41:09.087Z,21.57
2017-10-01T11:42:09.120Z,21.55
2017-10-01T11:43:09.142Z,21.42
2017-10-01T11:44:09.170Z,21.3
2017-10-01T11:45:10.027Z,21.29
2017-10-01T11:46:09.861Z,21.25
2017-10-01T11:47:10.008Z,21.3
2017-10-01T11:48:09.323Z,21.43
2017-10-01T11:49:09.434Z,21.37
2017-10-01T11:50:09.322Z,21.32
2017-10-01T11:51:10.215Z,21.4
2017-10-01T11:52:11.061Z,21.48
2017-10-01T11:53:10.113Z,21.7
2017-10-01T11:54:10.372Z,21.79
2017-10-01T11:55:09.964Z,22.08
2017-10-01T11:56:10.464Z,22.22
2017-10-01T11:57:09.624Z,22.44
2017-10-01T11:58:09.522Z,22.5
2017-10-01T11:59:09.548Z,22.53
2017-10-01T12:00:09.599Z,22.68
2017-10-01T12:01:09.646Z,22.76
2017-10-01T12:02:09.646Z,22.9
2017-10-01T12:03:09.650Z,23.02
2017-10-01T12:04:09.674Z,23.09
2017-10-01T12:05:09.811Z,23.17
2017-10-01T12:06:09.776Z,23.12
2017-10-01T12:07:09.763Z,23.31
2017-10-01T12:08:09.780Z,23.55
2017-10-01T12:09:09.812Z,23.58
2017-10-01T12:10:10.017Z,23.63
2017-10-01T12:11:09.864Z,23.37
2017-10-01T12:12:09.892Z,23.17
2017-10-01T12:13:09.925Z,23.03
2017-10-01T12:14:09.939Z,22.76
2017-10-01T12:15:09.971Z,22.38
2017-10-01T12:16:10.005Z,22.33
2017-10-01T12:17:10.025Z,22.17
2017-10-01T12:18:11.150Z,21.99
2017-10-01T12:19:10.236Z,21.82
2017-10-01T12:20:10.180Z,21.75
2017-10-01T12:21:10.180Z,21.75
2017-10-01T12:22:10.464Z,21.75
2017-10-01T12:23:10.177Z,21.7
2017-10-01T12:24:10.664Z,21.51
2017-10-01T12:25:10.251Z,21.46
2017-10-01T12:26:10.261Z,21.24
2017-10-01T12:27:10.278Z,21.25
2017-10-01T12:28:10.308Z,21.3
2017-10-01T12:29:10.324Z,21.24
2017-10-01T12:30:10.606Z,21.15
2017-10-01T12:31:10.696Z,21.18
2017-10-01T12:32:10.405Z,21.12
2017-10-01T12:33:10.426Z,20.97
2017-10-01T12:34:10.451Z,21
2017-10-01T12:35:10.478Z,21.05
2017-10-01T12:36:10.502Z,21.06
2017-10-01T12:37:10.656Z,20.9
2017-10-01T12:38:10.561Z,20.78
2017-10-01T12:39:10.899Z,20.72
2017-10-01T12:40:10.917Z,20.77
2017-10-01T12:41:10.941Z,20.7
2017-10-01T12:42:10.660Z,20.84
2017-10-01T12:43:10.697Z,20.8
2017-10-01T12:44:10.703Z,20.75
2017-10-01T12:45:10.754Z,20.65
2017-10-01T12:46:10.762Z,20.51
2017-10-01T12:47:10.777Z,20.55
2017-10-01T12:48:10.803Z,20.47
2017-10-01T12:49:10.849Z,20.43
2017-10-01T12:50:10.878Z,20.32
2017-10-01T12:51:11.198Z,20.25
2017-10-01T12:52:12.462Z,20.07
2017-10-01T12:53:10.925Z,20
2017-10-01T12:54:10.947Z,20.02
2017-10-01T12:55:11.335Z,20.07
2017-10-01T12:56:11.325Z,20.07